sensor_id;sensor_type;location;lat;lon;timestamp;P1;durP1;ratioP1;P2;durP2;ratioP2
56239;SDS011;42154;51.992;5.896;2023-07-29T00:02:11;4.45;;;3.92;;
56239;SDS011;42154;51.992;5.896;2023-07-29T00:04:37;5.10;;;4.28;;
56239;SDS011;42154;51.992;5.896;2023-07-29T00:07:02;5.53;;;4.10;;
56239;SDS011;42154;51.992;5.896;2023-07-29T00:09:28;6.45;;;4.95;;
56239;SDS011;42154;51.992;5.896;2023-07-29T00:11:54;6.90;;;4.57;;
56239;SDS011;42154;51.992;5.896;2023-07-29T00:14:20;7.43;;;4.60;;
56239;SDS011;42154;51.992;5.896;2023-07-29T00:16:45;5.20;;;4.18;;
56239;SDS011;42154;51.992;5.896;2023-07-29T00:19:11;5.85;;;3.95;;
56239;SDS011;42154;51.992;5.896;2023-07-29T00:21:37;4.78;;;4.07;;
56239;SDS011;42154;51.992;5.896;2023-07-29T00:24:03;4.13;;;3.72;;
56239;SDS011;42154;51.992;5.896;2023-07-29T00:26:29;4.93;;;3.63;;
56239;SDS011;42154;51.992;5.896;2023-07-29T00:28:58;6.57;;;4.35;;
56239;SDS011;42154;51.992;5.896;2023-07-29T00:31:23;5.35;;;4.18;;
56239;SDS011;42154;51.992;5.896;2023-07-29T00:33:50;5.57;;;4.80;;
56239;SDS011;42154;51.992;5.896;2023-07-29T00:36:18;4.85;;;4.05;;
56239;SDS011;42154;51.992;5.896;2023-07-29T00:38:44;5.25;;;4.22;;
56239;SDS011;42154;51.992;5.896;2023-07-29T00:41:09;5.50;;;4.28;;
56239;SDS011;42154;51.992;5.896;2023-07-29T00:43:40;5.88;;;3.92;;
56239;SDS011;42154;51.992;5.896;2023-07-29T00:46:06;4.53;;;3.85;;
56239;SDS011;42154;51.992;5.896;2023-07-29T00:48:35;5.07;;;4.00;;
56239;SDS011;42154;51.992;5.896;2023-07-29T00:51:01;4.85;;;3.75;;
56239;SDS011;42154;51.992;5.896;2023-07-29T00:53:27;6.88;;;4.10;;
56239;SDS011;42154;51.992;5.896;2023-07-29T00:55:53;6.20;;;3.78;;
56239;SDS011;42154;51.992;5.896;2023-07-29T00:58:19;4.70;;;3.42;;
56239;SDS011;42154;51.992;5.896;2023-07-29T01:00:44;4.10;;;3.17;;
56239;SDS011;42154;51.992;5.896;2023-07-29T01:03:10;3.60;;;3.05;;
56239;SDS011;42154;51.992;5.896;2023-07-29T01:05:41;3.90;;;3.35;;
56239;SDS011;42154;51.992;5.896;2023-07-29T01:11:38;4.65;;;3.50;;
56239;SDS011;42154;51.992;5.896;2023-07-29T01:14:27;4.10;;;2.92;;
56239;SDS011;42154;51.992;5.896;2023-07-29T01:17:03;4.85;;;3.38;;
56239;SDS011;42154;51.992;5.896;2023-07-29T01:22:31;4.25;;;3.38;;
56239;SDS011;42154;51.992;5.896;2023-07-29T01:24:59;3.78;;;3.38;;
56239;SDS011;42154;51.992;5.896;2023-07-29T01:27:25;3.92;;;3.30;;
56239;SDS011;42154;51.992;5.896;2023-07-29T01:29:51;3.70;;;3.30;;
56239;SDS011;42154;51.992;5.896;2023-07-29T01:35:19;2.90;;;2.58;;
56239;SDS011;42154;51.992;5.896;2023-07-29T01:37:52;2.58;;;2.30;;
56239;SDS011;42154;51.992;5.896;2023-07-29T01:40:26;4.68;;;3.03;;
56239;SDS011;42154;51.992;5.896;2023-07-29T01:42:53;5.70;;;2.58;;
56239;SDS011;42154;51.992;5.896;2023-07-29T01:45:22;3.17;;;2.65;;
56239;SDS011;42154;51.992;5.896;2023-07-29T01:47:49;4.57;;;2.70;;
56239;SDS011;42154;51.992;5.896;2023-07-29T01:50:15;4.45;;;2.78;;
56239;SDS011;42154;51.992;5.896;2023-07-29T01:52:41;2.60;;;2.40;;
56239;SDS011;42154;51.992;5.896;2023-07-29T01:55:07;4.03;;;2.70;;
56239;SDS011;42154;51.992;5.896;2023-07-29T01:57:33;2.67;;;2.30;;
56239;SDS011;42154;51.992;5.896;2023-07-29T01:59:58;4.05;;;2.50;;
56239;SDS011;42154;51.992;5.896;2023-07-29T02:02:24;3.05;;;2.05;;
56239;SDS011;42154;51.992;5.896;2023-07-29T02:04:50;3.33;;;2.38;;
56239;SDS011;42154;51.992;5.896;2023-07-29T02:07:20;2.72;;;2.08;;
56239;SDS011;42154;51.992;5.896;2023-07-29T02:09:46;2.25;;;1.85;;
56239;SDS011;42154;51.992;5.896;2023-07-29T02:12:12;1.88;;;1.70;;
56239;SDS011;42154;51.992;5.896;2023-07-29T02:14:37;2.17;;;1.80;;
56239;SDS011;42154;51.992;5.896;2023-07-29T02:17:04;7.97;;;2.42;;
56239;SDS011;42154;51.992;5.896;2023-07-29T02:19:29;3.65;;;2.50;;
56239;SDS011;42154;51.992;5.896;2023-07-29T02:21:55;3.35;;;1.80;;
56239;SDS011;42154;51.992;5.896;2023-07-29T02:24:21;3.00;;;2.15;;
56239;SDS011;42154;51.992;5.896;2023-07-29T02:26:46;2.60;;;2.10;;
56239;SDS011;42154;51.992;5.896;2023-07-29T02:29:13;2.05;;;1.70;;
56239;SDS011;42154;51.992;5.896;2023-07-29T02:31:39;2.42;;;1.85;;
56239;SDS011;42154;51.992;5.896;2023-07-29T02:34:04;4.03;;;2.25;;
56239;SDS011;42154;51.992;5.896;2023-07-29T02:36:30;2.28;;;2.08;;
56239;SDS011;42154;51.992;5.896;2023-07-29T02:38:57;3.88;;;3.00;;
56239;SDS011;42154;51.992;5.896;2023-07-29T02:41:23;4.75;;;3.78;;
56239;SDS011;42154;51.992;5.896;2023-07-29T02:43:49;5.45;;;4.53;;
56239;SDS011;42154;51.992;5.896;2023-07-29T02:46:15;6.82;;;5.18;;
56239;SDS011;42154;51.992;5.896;2023-07-29T02:48:42;7.45;;;6.13;;
56239;SDS011;42154;51.992;5.896;2023-07-29T02:51:09;9.98;;;7.35;;
56239;SDS011;42154;51.992;5.896;2023-07-29T02:53:35;8.48;;;6.07;;
56239;SDS011;42154;51.992;5.896;2023-07-29T02:56:02;8.75;;;5.57;;
56239;SDS011;42154;51.992;5.896;2023-07-29T02:58:29;8.32;;;6.40;;
56239;SDS011;42154;51.992;5.896;2023-07-29T03:01:01;7.65;;;5.45;;
56239;SDS011;42154;51.992;5.896;2023-07-29T03:03:29;10.23;;;7.07;;
56239;SDS011;42154;51.992;5.896;2023-07-29T03:05:59;7.78;;;5.78;;
56239;SDS011;42154;51.992;5.896;2023-07-29T03:08:29;8.68;;;6.53;;
56239;SDS011;42154;51.992;5.896;2023-07-29T03:10:58;7.88;;;5.28;;
56239;SDS011;42154;51.992;5.896;2023-07-29T03:13:29;6.35;;;5.32;;
56239;SDS011;42154;51.992;5.896;2023-07-29T03:16:03;10.07;;;6.47;;
56239;SDS011;42154;51.992;5.896;2023-07-29T03:18:34;5.97;;;4.82;;
56239;SDS011;42154;51.992;5.896;2023-07-29T03:21:00;5.70;;;5.10;;
56239;SDS011;42154;51.992;5.896;2023-07-29T03:23:27;5.57;;;4.72;;
56239;SDS011;42154;51.992;5.896;2023-07-29T03:25:58;8.90;;;6.05;;
56239;SDS011;42154;51.992;5.896;2023-07-29T03:28:25;7.63;;;6.18;;
56239;SDS011;42154;51.992;5.896;2023-07-29T03:30:53;5.70;;;4.43;;
56239;SDS011;42154;51.992;5.896;2023-07-29T03:33:19;7.25;;;5.10;;
56239;SDS011;42154;51.992;5.896;2023-07-29T03:35:45;8.32;;;5.15;;
56239;SDS011;42154;51.992;5.896;2023-07-29T03:38:11;6.03;;;5.03;;
56239;SDS011;42154;51.992;5.896;2023-07-29T03:40:40;6.80;;;5.60;;
56239;SDS011;42154;51.992;5.896;2023-07-29T03:43:06;6.65;;;5.32;;
56239;SDS011;42154;51.992;5.896;2023-07-29T03:45:34;5.35;;;4.53;;
56239;SDS011;42154;51.992;5.896;2023-07-29T03:48:00;5.53;;;4.20;;
56239;SDS011;42154;51.992;5.896;2023-07-29T03:50:28;7.05;;;5.25;;
56239;SDS011;42154;51.992;5.896;2023-07-29T03:52:54;6.15;;;4.97;;
56239;SDS011;42154;51.992;5.896;2023-07-29T03:55:20;6.47;;;4.07;;
56239;SDS011;42154;51.992;5.896;2023-07-29T03:57:46;5.55;;;4.53;;
56239;SDS011;42154;51.992;5.896;2023-07-29T04:00:12;6.47;;;4.43;;
56239;SDS011;42154;51.992;5.896;2023-07-29T04:02:41;5.25;;;4.03;;
56239;SDS011;42154;51.992;5.896;2023-07-29T04:05:09;5.30;;;3.80;;
56239;SDS011;42154;51.992;5.896;2023-07-29T04:07:35;4.78;;;3.90;;
56239;SDS011;42154;51.992;5.896;2023-07-29T04:10:02;5.45;;;3.33;;
56239;SDS011;42154;51.992;5.896;2023-07-29T04:12:28;5.18;;;4.05;;
56239;SDS011;42154;51.992;5.896;2023-07-29T04:14:54;6.28;;;4.28;;
56239;SDS011;42154;51.992;5.896;2023-07-29T04:17:20;4.95;;;4.05;;
56239;SDS011;42154;51.992;5.896;2023-07-29T04:19:46;4.88;;;3.50;;
56239;SDS011;42154;51.992;5.896;2023-07-29T04:22:12;4.38;;;3.65;;
56239;SDS011;42154;51.992;5.896;2023-07-29T04:24:38;4.25;;;3.15;;
56239;SDS011;42154;51.992;5.896;2023-07-29T04:27:03;5.25;;;3.67;;
56239;SDS011;42154;51.992;5.896;2023-07-29T04:29:29;4.60;;;2.80;;
56239;SDS011;42154;51.992;5.896;2023-07-29T04:31:55;7.18;;;4.28;;
56239;SDS011;42154;51.992;5.896;2023-07-29T04:34:21;4.07;;;2.95;;
56239;SDS011;42154;51.992;5.896;2023-07-29T04:36:47;6.28;;;3.45;;
56239;SDS011;42154;51.992;5.896;2023-07-29T04:39:13;7.85;;;3.40;;
56239;SDS011;42154;51.992;5.896;2023-07-29T04:41:39;4.15;;;3.00;;
56239;SDS011;42154;51.992;5.896;2023-07-29T04:44:05;3.40;;;2.95;;
56239;SDS011;42154;51.992;5.896;2023-07-29T04:46:31;3.55;;;2.78;;
56239;SDS011;42154;51.992;5.896;2023-07-29T04:48:58;4.13;;;2.60;;
56239;SDS011;42154;51.992;5.896;2023-07-29T04:51:24;4.20;;;2.90;;
56239;SDS011;42154;51.992;5.896;2023-07-29T04:53:50;3.72;;;2.80;;
56239;SDS011;42154;51.992;5.896;2023-07-29T04:56:16;3.97;;;2.70;;
56239;SDS011;42154;51.992;5.896;2023-07-29T04:58:44;2.97;;;2.53;;
56239;SDS011;42154;51.992;5.896;2023-07-29T05:01:09;2.78;;;2.38;;
56239;SDS011;42154;51.992;5.896;2023-07-29T05:03:35;5.13;;;3.00;;
56239;SDS011;42154;51.992;5.896;2023-07-29T05:06:03;3.70;;;2.70;;
56239;SDS011;42154;51.992;5.896;2023-07-29T05:08:29;3.03;;;2.25;;
56239;SDS011;42154;51.992;5.896;2023-07-29T05:10:55;4.05;;;2.50;;
56239;SDS011;42154;51.992;5.896;2023-07-29T05:13:21;4.82;;;2.50;;
56239;SDS011;42154;51.992;5.896;2023-07-29T05:15:47;4.82;;;2.28;;
56239;SDS011;42154;51.992;5.896;2023-07-29T05:18:14;2.50;;;2.17;;
56239;SDS011;42154;51.992;5.896;2023-07-29T05:20:40;5.10;;;2.42;;
56239;SDS011;42154;51.992;5.896;2023-07-29T05:23:06;2.72;;;2.10;;
56239;SDS011;42154;51.992;5.896;2023-07-29T05:25:32;3.63;;;2.17;;
56239;SDS011;42154;51.992;5.896;2023-07-29T05:28:00;4.25;;;2.38;;
56239;SDS011;42154;51.992;5.896;2023-07-29T05:30:26;3.17;;;2.30;;
56239;SDS011;42154;51.992;5.896;2023-07-29T05:32:56;2.42;;;2.03;;
56239;SDS011;42154;51.992;5.896;2023-07-29T05:35:25;3.22;;;2.40;;
56239;SDS011;42154;51.992;5.896;2023-07-29T05:37:51;3.53;;;2.28;;
56239;SDS011;42154;51.992;5.896;2023-07-29T05:40:17;4.18;;;2.40;;
56239;SDS011;42154;51.992;5.896;2023-07-29T05:42:43;3.15;;;2.20;;
56239;SDS011;42154;51.992;5.896;2023-07-29T05:45:10;2.75;;;2.20;;
56239;SDS011;42154;51.992;5.896;2023-07-29T05:47:36;3.13;;;2.13;;
56239;SDS011;42154;51.992;5.896;2023-07-29T05:50:02;2.60;;;2.10;;
56239;SDS011;42154;51.992;5.896;2023-07-29T05:52:33;3.17;;;2.28;;
56239;SDS011;42154;51.992;5.896;2023-07-29T05:54:59;3.40;;;2.45;;
56239;SDS011;42154;51.992;5.896;2023-07-29T05:57:25;5.18;;;3.00;;
56239;SDS011;42154;51.992;5.896;2023-07-29T05:59:51;4.05;;;2.70;;
56239;SDS011;42154;51.992;5.896;2023-07-29T06:02:16;3.47;;;2.65;;
56239;SDS011;42154;51.992;5.896;2023-07-29T06:04:42;3.88;;;2.97;;
56239;SDS011;42154;51.992;5.896;2023-07-29T06:07:08;4.55;;;2.75;;
56239;SDS011;42154;51.992;5.896;2023-07-29T06:09:34;4.47;;;3.00;;
56239;SDS011;42154;51.992;5.896;2023-07-29T06:12:00;4.68;;;2.90;;
56239;SDS011;42154;51.992;5.896;2023-07-29T06:14:26;5.15;;;3.25;;
56239;SDS011;42154;51.992;5.896;2023-07-29T06:16:52;5.28;;;3.53;;
56239;SDS011;42154;51.992;5.896;2023-07-29T06:19:19;5.25;;;3.22;;
56239;SDS011;42154;51.992;5.896;2023-07-29T06:21:45;3.47;;;2.90;;
56239;SDS011;42154;51.992;5.896;2023-07-29T06:24:11;3.97;;;3.17;;
56239;SDS011;42154;51.992;5.896;2023-07-29T06:26:37;5.75;;;2.95;;
56239;SDS011;42154;51.992;5.896;2023-07-29T06:29:03;5.85;;;3.22;;
56239;SDS011;42154;51.992;5.896;2023-07-29T06:31:29;6.43;;;3.45;;
56239;SDS011;42154;51.992;5.896;2023-07-29T06:33:55;5.45;;;3.47;;
56239;SDS011;42154;51.992;5.896;2023-07-29T06:36:20;5.10;;;3.70;;
56239;SDS011;42154;51.992;5.896;2023-07-29T06:38:46;4.68;;;3.35;;
56239;SDS011;42154;51.992;5.896;2023-07-29T06:41:12;5.63;;;3.88;;
56239;SDS011;42154;51.992;5.896;2023-07-29T06:43:38;5.68;;;3.35;;
56239;SDS011;42154;51.992;5.896;2023-07-29T06:46:03;4.15;;;3.05;;
56239;SDS011;42154;51.992;5.896;2023-07-29T06:48:29;3.60;;;2.92;;
56239;SDS011;42154;51.992;5.896;2023-07-29T06:50:55;6.10;;;2.80;;
56239;SDS011;42154;51.992;5.896;2023-07-29T06:53:25;6.45;;;3.53;;
56239;SDS011;42154;51.992;5.896;2023-07-29T06:55:54;5.60;;;3.40;;
56239;SDS011;42154;51.992;5.896;2023-07-29T06:58:19;6.18;;;3.63;;
56239;SDS011;42154;51.992;5.896;2023-07-29T07:00:46;6.47;;;3.33;;
56239;SDS011;42154;51.992;5.896;2023-07-29T07:03:11;6.50;;;4.60;;
56239;SDS011;42154;51.992;5.896;2023-07-29T07:05:37;5.68;;;3.30;;
56239;SDS011;42154;51.992;5.896;2023-07-29T07:08:03;4.38;;;3.25;;
56239;SDS011;42154;51.992;5.896;2023-07-29T07:10:29;6.10;;;3.78;;
56239;SDS011;42154;51.992;5.896;2023-07-29T07:12:54;4.05;;;2.67;;
56239;SDS011;42154;51.992;5.896;2023-07-29T07:15:20;4.38;;;3.25;;
56239;SDS011;42154;51.992;5.896;2023-07-29T07:17:46;4.28;;;3.22;;
56239;SDS011;42154;51.992;5.896;2023-07-29T07:20:12;5.43;;;3.67;;
56239;SDS011;42154;51.992;5.896;2023-07-29T07:22:37;6.95;;;3.85;;
56239;SDS011;42154;51.992;5.896;2023-07-29T07:25:04;4.50;;;3.50;;
56239;SDS011;42154;51.992;5.896;2023-07-29T07:27:30;3.85;;;3.45;;
56239;SDS011;42154;51.992;5.896;2023-07-29T07:29:56;5.53;;;4.22;;
56239;SDS011;42154;51.992;5.896;2023-07-29T07:32:21;4.88;;;3.22;;
56239;SDS011;42154;51.992;5.896;2023-07-29T07:34:47;7.95;;;5.18;;
56239;SDS011;42154;51.992;5.896;2023-07-29T07:37:13;6.07;;;4.53;;
56239;SDS011;42154;51.992;5.896;2023-07-29T07:39:39;6.88;;;4.28;;
56239;SDS011;42154;51.992;5.896;2023-07-29T07:42:04;6.82;;;4.57;;
56239;SDS011;42154;51.992;5.896;2023-07-29T07:44:30;5.30;;;4.25;;
56239;SDS011;42154;51.992;5.896;2023-07-29T07:46:56;5.95;;;4.32;;
56239;SDS011;42154;51.992;5.896;2023-07-29T07:49:22;4.80;;;3.80;;
56239;SDS011;42154;51.992;5.896;2023-07-29T07:51:48;6.72;;;4.35;;
56239;SDS011;42154;51.992;5.896;2023-07-29T07:54:14;7.75;;;4.75;;
56239;SDS011;42154;51.992;5.896;2023-07-29T07:56:39;5.72;;;4.38;;
56239;SDS011;42154;51.992;5.896;2023-07-29T07:59:05;4.43;;;4.03;;
56239;SDS011;42154;51.992;5.896;2023-07-29T08:01:34;5.38;;;4.20;;
56239;SDS011;42154;51.992;5.896;2023-07-29T08:04:01;4.75;;;3.70;;
56239;SDS011;42154;51.992;5.896;2023-07-29T08:06:28;3.92;;;2.80;;
56239;SDS011;42154;51.992;5.896;2023-07-29T08:08:54;4.03;;;3.40;;
56239;SDS011;42154;51.992;5.896;2023-07-29T08:11:19;4.47;;;3.05;;
56239;SDS011;42154;51.992;5.896;2023-07-29T08:13:45;4.55;;;3.80;;
56239;SDS011;42154;51.992;5.896;2023-07-29T08:16:11;4.97;;;3.60;;
56239;SDS011;42154;51.992;5.896;2023-07-29T08:18:38;6.30;;;3.42;;
56239;SDS011;42154;51.992;5.896;2023-07-29T08:21:03;4.85;;;3.80;;
56239;SDS011;42154;51.992;5.896;2023-07-29T08:23:30;2.97;;;2.17;;
56239;SDS011;42154;51.992;5.896;2023-07-29T08:25:57;4.57;;;2.90;;
56239;SDS011;42154;51.992;5.896;2023-07-29T08:28:28;4.30;;;2.70;;
56239;SDS011;42154;51.992;5.896;2023-07-29T08:30:55;3.28;;;2.97;;
56239;SDS011;42154;51.992;5.896;2023-07-29T08:33:21;3.75;;;3.20;;
56239;SDS011;42154;51.992;5.896;2023-07-29T08:35:47;2.65;;;2.33;;
56239;SDS011;42154;51.992;5.896;2023-07-29T08:38:12;3.00;;;2.70;;
56239;SDS011;42154;51.992;5.896;2023-07-29T08:40:41;3.22;;;2.72;;
56239;SDS011;42154;51.992;5.896;2023-07-29T08:43:10;3.10;;;2.80;;
56239;SDS011;42154;51.992;5.896;2023-07-29T08:45:37;2.42;;;2.22;;
56239;SDS011;42154;51.992;5.896;2023-07-29T08:48:07;4.97;;;2.63;;
56239;SDS011;42154;51.992;5.896;2023-07-29T08:50:35;2.95;;;2.60;;
56239;SDS011;42154;51.992;5.896;2023-07-29T08:53:05;3.45;;;2.58;;
56239;SDS011;42154;51.992;5.896;2023-07-29T08:55:31;4.65;;;2.45;;
56239;SDS011;42154;51.992;5.896;2023-07-29T08:57:58;3.53;;;2.25;;
56239;SDS011;42154;51.992;5.896;2023-07-29T09:00:28;3.50;;;2.30;;
56239;SDS011;42154;51.992;5.896;2023-07-29T09:02:54;3.13;;;2.08;;
56239;SDS011;42154;51.992;5.896;2023-07-29T09:05:22;2.85;;;1.70;;
56239;SDS011;42154;51.992;5.896;2023-07-29T09:07:49;2.33;;;1.90;;
56239;SDS011;42154;51.992;5.896;2023-07-29T09:10:18;2.17;;;1.35;;
56239;SDS011;42154;51.992;5.896;2023-07-29T09:12:48;1.58;;;1.20;;
56239;SDS011;42154;51.992;5.896;2023-07-29T09:15:25;5.03;;;2.10;;
56239;SDS011;42154;51.992;5.896;2023-07-29T09:17:56;2.08;;;1.88;;
56239;SDS011;42154;51.992;5.896;2023-07-29T09:20:23;2.53;;;1.85;;
56239;SDS011;42154;51.992;5.896;2023-07-29T09:22:50;2.20;;;1.55;;
56239;SDS011;42154;51.992;5.896;2023-07-29T09:25:22;2.58;;;1.77;;
56239;SDS011;42154;51.992;5.896;2023-07-29T09:27:49;3.00;;;1.95;;
56239;SDS011;42154;51.992;5.896;2023-07-29T09:30:17;2.15;;;1.55;;
56239;SDS011;42154;51.992;5.896;2023-07-29T09:32:43;2.35;;;1.60;;
56239;SDS011;42154;51.992;5.896;2023-07-29T09:35:10;1.95;;;1.75;;
56239;SDS011;42154;51.992;5.896;2023-07-29T09:37:39;2.80;;;1.50;;
56239;SDS011;42154;51.992;5.896;2023-07-29T09:40:06;4.15;;;1.70;;
56239;SDS011;42154;51.992;5.896;2023-07-29T09:42:38;4.40;;;1.35;;
56239;SDS011;42154;51.992;5.896;2023-07-29T09:45:04;3.05;;;1.20;;
56239;SDS011;42154;51.992;5.896;2023-07-29T09:47:30;2.28;;;1.40;;
56239;SDS011;42154;51.992;5.896;2023-07-29T09:49:55;2.10;;;1.50;;
56239;SDS011;42154;51.992;5.896;2023-07-29T09:52:22;1.48;;;1.10;;
56239;SDS011;42154;51.992;5.896;2023-07-29T09:54:49;1.58;;;1.15;;
56239;SDS011;42154;51.992;5.896;2023-07-29T09:57:16;1.10;;;0.80;;
56239;SDS011;42154;51.992;5.896;2023-07-29T09:59:43;1.55;;;0.90;;
56239;SDS011;42154;51.992;5.896;2023-07-29T10:02:19;2.03;;;1.30;;
56239;SDS011;42154;51.992;5.896;2023-07-29T10:04:46;1.50;;;1.05;;
56239;SDS011;42154;51.992;5.896;2023-07-29T10:07:12;2.22;;;1.10;;
56239;SDS011;42154;51.992;5.896;2023-07-29T10:09:39;3.22;;;1.38;;
56239;SDS011;42154;51.992;5.896;2023-07-29T10:12:05;3.15;;;1.10;;
56239;SDS011;42154;51.992;5.896;2023-07-29T10:14:32;1.90;;;1.15;;
56239;SDS011;42154;51.992;5.896;2023-07-29T10:16:58;1.48;;;1.10;;
56239;SDS011;42154;51.992;5.896;2023-07-29T10:19:25;1.55;;;1.10;;
56239;SDS011;42154;51.992;5.896;2023-07-29T10:21:51;1.85;;;1.20;;
56239;SDS011;42154;51.992;5.896;2023-07-29T10:24:19;1.20;;;1.10;;
56239;SDS011;42154;51.992;5.896;2023-07-29T10:26:49;2.42;;;0.93;;
56239;SDS011;42154;51.992;5.896;2023-07-29T10:29:18;1.65;;;1.00;;
56239;SDS011;42154;51.992;5.896;2023-07-29T10:31:46;1.83;;;1.00;;
56239;SDS011;42154;51.992;5.896;2023-07-29T10:34:12;1.40;;;0.82;;
56239;SDS011;42154;51.992;5.896;2023-07-29T10:36:39;4.00;;;0.90;;
56239;SDS011;42154;51.992;5.896;2023-07-29T10:39:06;2.92;;;1.02;;
56239;SDS011;42154;51.992;5.896;2023-07-29T10:45:07;2.88;;;0.98;;
56239;SDS011;42154;51.992;5.896;2023-07-29T10:47:26;2.28;;;0.90;;
56239;SDS011;42154;51.992;5.896;2023-07-29T10:49:55;1.60;;;1.00;;
56239;SDS011;42154;51.992;5.896;2023-07-29T10:52:29;4.30;;;1.60;;
56239;SDS011;42154;51.992;5.896;2023-07-29T10:54:56;2.13;;;1.50;;
56239;SDS011;42154;51.992;5.896;2023-07-29T10:57:35;3.08;;;1.98;;
56239;SDS011;42154;51.992;5.896;2023-07-29T11:00:03;2.30;;;1.50;;
56239;SDS011;42154;51.992;5.896;2023-07-29T11:02:31;2.13;;;1.30;;
56239;SDS011;42154;51.992;5.896;2023-07-29T11:04:58;2.00;;;1.45;;
56239;SDS011;42154;51.992;5.896;2023-07-29T11:07:25;2.30;;;1.40;;
56239;SDS011;42154;51.992;5.896;2023-07-29T11:09:53;1.98;;;1.00;;
56239;SDS011;42154;51.992;5.896;2023-07-29T11:12:33;2.50;;;1.08;;
56239;SDS011;42154;51.992;5.896;2023-07-29T11:15:18;1.88;;;1.10;;
56239;SDS011;42154;51.992;5.896;2023-07-29T11:20:16;2.55;;;1.23;;
56239;SDS011;42154;51.992;5.896;2023-07-29T11:22:43;2.22;;;1.27;;
56239;SDS011;42154;51.992;5.896;2023-07-29T11:25:09;1.30;;;1.10;;
56239;SDS011;42154;51.992;5.896;2023-07-29T11:27:37;2.05;;;1.00;;
56239;SDS011;42154;51.992;5.896;2023-07-29T11:30:04;1.20;;;1.10;;
56239;SDS011;42154;51.992;5.896;2023-07-29T11:32:37;1.30;;;1.00;;
56239;SDS011;42154;51.992;5.896;2023-07-29T11:35:05;1.90;;;1.30;;
56239;SDS011;42154;51.992;5.896;2023-07-29T11:37:35;2.72;;;1.50;;
56239;SDS011;42154;51.992;5.896;2023-07-29T11:40:02;2.55;;;1.50;;
56239;SDS011;42154;51.992;5.896;2023-07-29T11:42:28;2.80;;;1.33;;
56239;SDS011;42154;51.992;5.896;2023-07-29T11:44:57;1.88;;;1.35;;
56239;SDS011;42154;51.992;5.896;2023-07-29T11:47:23;1.65;;;1.02;;
56239;SDS011;42154;51.992;5.896;2023-07-29T11:49:49;1.45;;;1.23;;
56239;SDS011;42154;51.992;5.896;2023-07-29T11:52:15;1.77;;;0.88;;
56239;SDS011;42154;51.992;5.896;2023-07-29T11:54:45;2.97;;;1.20;;
56239;SDS011;42154;51.992;5.896;2023-07-29T11:57:13;1.67;;;1.13;;
56239;SDS011;42154;51.992;5.896;2023-07-29T11:59:39;2.95;;;1.40;;
56239;SDS011;42154;51.992;5.896;2023-07-29T12:02:10;2.45;;;1.15;;
56239;SDS011;42154;51.992;5.896;2023-07-29T12:04:38;2.83;;;1.40;;
56239;SDS011;42154;51.992;5.896;2023-07-29T12:07:05;1.73;;;1.20;;
56239;SDS011;42154;51.992;5.896;2023-07-29T12:09:31;2.00;;;0.93;;
56239;SDS011;42154;51.992;5.896;2023-07-29T12:11:59;1.73;;;0.93;;
56239;SDS011;42154;51.992;5.896;2023-07-29T12:14:28;1.85;;;1.10;;
56239;SDS011;42154;51.992;5.896;2023-07-29T12:16:54;1.55;;;1.20;;
56239;SDS011;42154;51.992;5.896;2023-07-29T12:19:20;1.40;;;1.00;;
56239;SDS011;42154;51.992;5.896;2023-07-29T12:21:47;3.17;;;1.00;;
56239;SDS011;42154;51.992;5.896;2023-07-29T12:24:14;1.17;;;0.90;;
56239;SDS011;42154;51.992;5.896;2023-07-29T12:26:40;1.00;;;0.88;;
56239;SDS011;42154;51.992;5.896;2023-07-29T12:29:17;2.67;;;1.35;;
56239;SDS011;42154;51.992;5.896;2023-07-29T12:31:45;1.65;;;1.20;;
56239;SDS011;42154;51.992;5.896;2023-07-29T12:34:20;3.55;;;1.05;;
56239;SDS011;42154;51.992;5.896;2023-07-29T12:36:50;2.25;;;1.52;;
56239;SDS011;42154;51.992;5.896;2023-07-29T12:41:55;2.30;;;1.17;;
56239;SDS011;42154;51.992;5.896;2023-07-29T12:44:23;1.67;;;0.90;;
56239;SDS011;42154;51.992;5.896;2023-07-29T12:46:50;1.88;;;0.68;;
56239;SDS011;42154;51.992;5.896;2023-07-29T12:49:17;1.42;;;0.80;;
56239;SDS011;42154;51.992;5.896;2023-07-29T12:51:43;1.63;;;0.70;;
56239;SDS011;42154;51.992;5.896;2023-07-29T12:54:08;1.15;;;0.65;;
56239;SDS011;42154;51.992;5.896;2023-07-29T12:56:35;1.52;;;0.80;;
56239;SDS011;42154;51.992;5.896;2023-07-29T12:59:01;0.93;;;0.70;;
56239;SDS011;42154;51.992;5.896;2023-07-29T13:01:27;1.20;;;0.77;;
56239;SDS011;42154;51.992;5.896;2023-07-29T13:03:54;1.25;;;0.73;;
56239;SDS011;42154;51.992;5.896;2023-07-29T13:06:21;1.75;;;0.60;;
56239;SDS011;42154;51.992;5.896;2023-07-29T13:08:47;1.05;;;0.70;;
56239;SDS011;42154;51.992;5.896;2023-07-29T13:11:14;1.30;;;1.00;;
56239;SDS011;42154;51.992;5.896;2023-07-29T13:13:40;1.67;;;0.88;;
56239;SDS011;42154;51.992;5.896;2023-07-29T13:16:06;1.20;;;1.10;;
56239;SDS011;42154;51.992;5.896;2023-07-29T13:18:33;1.15;;;0.98;;
56239;SDS011;42154;51.992;5.896;2023-07-29T13:20:59;2.42;;;1.02;;
56239;SDS011;42154;51.992;5.896;2023-07-29T13:23:25;2.88;;;1.10;;
56239;SDS011;42154;51.992;5.896;2023-07-29T13:25:52;1.30;;;1.08;;
56239;SDS011;42154;51.992;5.896;2023-07-29T13:28:17;2.00;;;1.33;;
56239;SDS011;42154;51.992;5.896;2023-07-29T13:30:44;1.50;;;1.40;;
56239;SDS011;42154;51.992;5.896;2023-07-29T13:33:10;2.13;;;1.95;;
56239;SDS011;42154;51.992;5.896;2023-07-29T13:35:36;2.55;;;1.60;;
56239;SDS011;42154;51.992;5.896;2023-07-29T13:38:02;2.35;;;2.13;;
56239;SDS011;42154;51.992;5.896;2023-07-29T13:40:28;1.83;;;1.52;;
56239;SDS011;42154;51.992;5.896;2023-07-29T13:42:54;2.78;;;2.20;;
56239;SDS011;42154;51.992;5.896;2023-07-29T13:45:20;1.48;;;1.25;;
56239;SDS011;42154;51.992;5.896;2023-07-29T13:47:46;1.77;;;1.58;;
56239;SDS011;42154;51.992;5.896;2023-07-29T13:50:12;1.77;;;1.45;;
56239;SDS011;42154;51.992;5.896;2023-07-29T13:52:38;1.70;;;1.60;;
56239;SDS011;42154;51.992;5.896;2023-07-29T13:55:04;1.73;;;1.63;;
56239;SDS011;42154;51.992;5.896;2023-07-29T13:57:31;1.67;;;1.30;;
56239;SDS011;42154;51.992;5.896;2023-07-29T13:59:57;3.17;;;1.50;;
56239;SDS011;42154;51.992;5.896;2023-07-29T14:02:23;1.83;;;1.65;;
56239;SDS011;42154;51.992;5.896;2023-07-29T14:04:49;1.83;;;1.67;;
56239;SDS011;42154;51.992;5.896;2023-07-29T14:07:14;1.30;;;1.20;;
56239;SDS011;42154;51.992;5.896;2023-07-29T14:09:40;1.08;;;0.98;;
56239;SDS011;42154;51.992;5.896;2023-07-29T14:12:08;2.65;;;1.10;;
56239;SDS011;42154;51.992;5.896;2023-07-29T14:14:37;2.37;;;1.00;;
56239;SDS011;42154;51.992;5.896;2023-07-29T14:17:03;1.50;;;1.02;;
56239;SDS011;42154;51.992;5.896;2023-07-29T14:19:29;1.55;;;1.20;;
56239;SDS011;42154;51.992;5.896;2023-07-29T14:21:56;1.58;;;1.30;;
56239;SDS011;42154;51.992;5.896;2023-07-29T14:24:22;1.45;;;1.35;;
56239;SDS011;42154;51.992;5.896;2023-07-29T14:26:48;1.80;;;1.27;;
56239;SDS011;42154;51.992;5.896;2023-07-29T14:29:13;2.42;;;1.67;;
56239;SDS011;42154;51.992;5.896;2023-07-29T14:31:39;1.70;;;1.55;;
56239;SDS011;42154;51.992;5.896;2023-07-29T14:34:05;1.58;;;1.30;;
56239;SDS011;42154;51.992;5.896;2023-07-29T14:36:30;1.38;;;1.27;;
56239;SDS011;42154;51.992;5.896;2023-07-29T14:38:56;1.40;;;1.30;;
56239;SDS011;42154;51.992;5.896;2023-07-29T14:41:22;1.73;;;1.60;;
56239;SDS011;42154;51.992;5.896;2023-07-29T14:43:48;1.40;;;1.20;;
56239;SDS011;42154;51.992;5.896;2023-07-29T14:46:13;1.77;;;1.40;;
56239;SDS011;42154;51.992;5.896;2023-07-29T14:48:39;2.08;;;1.10;;
56239;SDS011;42154;51.992;5.896;2023-07-29T14:51:05;1.23;;;1.13;;
56239;SDS011;42154;51.992;5.896;2023-07-29T14:53:31;1.73;;;1.00;;
56239;SDS011;42154;51.992;5.896;2023-07-29T14:55:56;1.45;;;1.05;;
56239;SDS011;42154;51.992;5.896;2023-07-29T14:58:22;1.17;;;1.08;;
56239;SDS011;42154;51.992;5.896;2023-07-29T15:00:50;2.03;;;1.20;;
56239;SDS011;42154;51.992;5.896;2023-07-29T15:03:17;1.90;;;1.27;;
56239;SDS011;42154;51.992;5.896;2023-07-29T15:05:42;2.95;;;1.10;;